Time;durP1;ratioP1;P1;durP2;ratioP2;P2;SDS_P1;SDS_P2;PMS_P1;PMS_P2;Temp;Humidity;BMP_temperature;BMP_pressure;BME280_temperature;BME280_humidity;BME280_pressure;Samples;Min_cycle;Max_cycle;Signal;HPM_P1;HPM_P2
2023/12/06 00:00:30;;;;;;;2.15;1.95;;;2.30;99.90;;;;;;6252227;22;20282;-85
2023/12/06 00:03:17;;;;;;;2.28;2.05;;;2.30;99.90;;;;;;6273668;22;20055;-83
2023/12/06 00:06:05;;;;;;;2.53;1.77;;;2.30;99.90;;;;;;6272306;22;20031;-85
2023/12/06 00:08:52;;;;;;;1.85;1.65;;;2.30;99.90;;;;;;6249482;22;20019;-85
2023/12/06 00:11:40;;;;;;;1.92;1.60;;;2.30;99.90;;;;;;6248266;22;20023;-84
2023/12/06 00:14:27;;;;;;;1.77;1.67;;;2.30;99.90;;;;;;6273522;22;20023;-84
2023/12/06 00:17:14;;;;;;;1.85;1.70;;;2.30;99.90;;;;;;6274155;22;20275;-85
2023/12/06 00:20:01;;;;;;;1.80;1.70;;;2.30;99.90;;;;;;6249462;22;20027;-84
2023/12/06 00:22:49;;;;;;;1.52;1.42;;;2.30;99.90;;;;;;6251384;22;20023;-84
2023/12/06 00:25:38;;;;;;;1.75;1.65;;;2.30;99.90;;;;;;6274394;22;20024;-85
2023/12/06 00:28:26;;;;;;;2.17;1.60;;;2.30;99.90;;;;;;6273978;22;20038;-83
2023/12/06 00:31:13;;;;;;;1.60;1.50;;;2.30;99.90;;;;;;6277417;22;20042;-84
2023/12/06 00:34:00;;;;;;;1.88;1.60;;;2.30;99.90;;;;;;6275949;22;20102;-81
2023/12/06 00:36:48;;;;;;;1.40;1.30;;;2.30;99.90;;;;;;6276575;22;20019;-84
2023/12/06 00:39:35;;;;;;;1.58;1.48;;;2.30;99.90;;;;;;6275232;22;20116;-85
2023/12/06 00:42:25;;;;;;;1.70;1.60;;;2.20;99.90;;;;;;6272960;22;20214;-79
2023/12/06 00:45:12;;;;;;;1.50;1.40;;;2.20;99.90;;;;;;6255910;22;20038;-79
2023/12/06 00:47:59;;;;;;;1.77;1.65;;;2.20;99.90;;;;;;6276299;22;20114;-83
2023/12/06 00:50:47;;;;;;;1.70;1.60;;;2.20;99.90;;;;;;6276454;22;20111;-84
2023/12/06 00:53:34;;;;;;;2.47;1.40;;;2.20;99.90;;;;;;6274012;22;20023;-85
2023/12/06 00:56:21;;;;;;;1.63;1.52;;;2.20;99.90;;;;;;6275570;22;20553;-85
2023/12/06 00:59:08;;;;;;;1.60;1.50;;;2.20;99.90;;;;;;6249756;22;20118;-84
2023/12/06 01:01:55;;;;;;;2.58;1.80;;;2.20;99.90;;;;;;6275337;22;20027;-81
2023/12/06 01:04:43;;;;;;;1.50;1.40;;;2.20;99.90;;;;;;6275741;22;20028;-85
2023/12/06 01:07:30;;;;;;;2.25;2.05;;;2.20;99.90;;;;;;6254240;22;20030;-84
2023/12/06 01:10:17;;;;;;;1.90;1.55;;;2.20;99.90;;;;;;6276371;22;20019;-80
2023/12/06 01:13:07;;;;;;;1.65;1.55;;;2.20;99.90;;;;;;6275348;22;20024;-85
2023/12/06 01:15:57;;;;;;;2.88;1.90;;;2.20;99.90;;;;;;6275732;22;20302;-84
2023/12/06 01:18:44;;;;;;;2.05;1.85;;;2.20;99.90;;;;;;6251929;22;20652;-84
2023/12/06 01:21:32;;;;;;;5.57;1.90;;;2.20;99.90;;;;;;6277993;22;20024;-82
2023/12/06 01:24:24;;;;;;;1.65;1.50;;;2.20;99.90;;;;;;6276804;22;20413;-85
2023/12/06 01:27:11;;;;;;;2.20;2.00;;;2.20;99.90;;;;;;6252088;22;20028;-82
2023/12/06 01:29:58;;;;;;;1.67;1.58;;;2.30;99.90;;;;;;6271321;22;20357;-84
2023/12/06 01:33:00;;;;;;;1.75;1.65;;;2.30;99.90;;;;;;6254235;22;20043;-82
2023/12/06 01:35:50;;;;;;;2.40;1.58;;;2.30;99.90;;;;;;6273472;22;20020;-84
2023/12/06 01:38:37;;;;;;;1.65;1.55;;;2.30;99.90;;;;;;6274945;22;20020;-83
2023/12/06 01:41:24;;;;;;;1.73;1.63;;;2.30;99.90;;;;;;6252247;22;20426;-84
2023/12/06 01:44:13;;;;;;;2.47;2.10;;;2.30;99.90;;;;;;6249791;22;20024;-83
2023/12/06 01:47:02;;;;;;;1.80;1.70;;;2.20;99.90;;;;;;6273305;22;20101;-83
2023/12/06 01:49:50;;;;;;;2.15;1.95;;;2.20;99.90;;;;;;6273346;22;20297;-84
2023/12/06 01:52:39;;;;;;;2.08;1.98;;;2.20;99.90;;;;;;6252078;22;20045;-84
2023/12/06 01:55:27;;;;;;;2.08;1.98;;;2.20;99.90;;;;;;6274728;22;20024;-84
2023/12/06 01:58:14;;;;;;;4.72;2.60;;;2.20;99.90;;;;;;6275858;22;20033;-84
2023/12/06 02:01:06;;;;;;;2.40;2.20;;;2.20;99.90;;;;;;6253449;22;20412;-81
2023/12/06 02:03:53;;;;;;;2.83;2.60;;;2.20;99.90;;;;;;6275683;22;20019;-82
2023/12/06 02:06:43;;;;;;;3.33;2.05;;;2.20;99.90;;;;;;6276520;22;20062;-83
2023/12/06 02:09:30;;;;;;;2.20;2.05;;;2.20;99.90;;;;;;6251860;22;20099;-83
2023/12/06 02:12:18;;;;;;;3.35;1.95;;;2.20;99.90;;;;;;6276399;22;20035;-82
2023/12/06 02:15:10;;;;;;;1.90;1.80;;;2.20;99.90;;;;;;6278018;22;20038;-84
2023/12/06 02:17:58;;;;;;;2.25;1.90;;;2.20;99.90;;;;;;6254326;22;20342;-83
2023/12/06 02:20:45;;;;;;;2.20;1.92;;;2.20;99.90;;;;;;6275062;22;20027;-85
2023/12/06 02:23:37;;;;;;;5.93;2.03;;;2.20;99.90;;;;;;6274948;22;20035;-85
2023/12/06 02:26:27;;;;;;;3.30;2.10;;;2.20;99.90;;;;;;6273398;22;20129;-85
2023/12/06 02:29:16;;;;;;;2.00;1.90;;;2.20;99.90;;;;;;6276525;22;20054;-85
2023/12/06 02:32:04;;;;;;;3.83;2.08;;;2.30;99.90;;;;;;6272159;22;20588;-84
2023/12/06 02:34:54;;;;;;;2.20;2.00;;;2.30;99.90;;;;;;6275487;22;20020;-84
2023/12/06 02:37:42;;;;;;;2.08;1.98;;;2.30;99.90;;;;;;6273504;22;20034;-84
2023/12/06 02:40:31;;;;;;;2.03;1.92;;;2.30;99.90;;;;;;6274909;22;20023;-84
2023/12/06 02:43:21;;;;;;;2.10;1.90;;;2.30;99.90;;;;;;6276046;22;20110;-85
2023/12/06 02:46:08;;;;;;;1.90;1.80;;;2.20;99.90;;;;;;6275677;22;20028;-84
2023/12/06 02:48:56;;;;;;;1.80;1.70;;;2.30;99.90;;;;;;6254488;22;20027;-84
2023/12/06 02:51:44;;;;;;;2.08;1.88;;;2.20;99.90;;;;;;6280813;22;20034;-81
2023/12/06 02:54:32;;;;;;;2.65;1.48;;;2.30;99.90;;;;;;6277937;22;20128;-84
2023/12/06 02:57:21;;;;;;;2.35;1.60;;;2.30;99.90;;;;;;6276608;22;20034;-83
2023/12/06 03:00:10;;;;;;;2.53;1.90;;;2.20;99.90;;;;;;6276035;22;20328;-84
2023/12/06 03:02:57;;;;;;;1.85;1.73;;;2.20;99.90;;;;;;6276267;22;20028;-84
2023/12/06 03:05:44;;;;;;;1.92;1.55;;;2.30;99.90;;;;;;6274829;22;20325;-85
2023/12/06 03:08:34;;;;;;;1.60;1.50;;;2.30;99.90;;;;;;6274183;22;20024;-84
2023/12/06 03:11:21;;;;;;;2.00;1.30;;;2.30;99.90;;;;;;6271613;22;20050;-84
2023/12/06 03:14:11;;;;;;;2.13;1.50;;;2.30;99.90;;;;;;6275469;22;20024;-83
2023/12/06 03:16:58;;;;;;;1.80;1.30;;;2.30;99.90;;;;;;6250594;22;20024;-86
2023/12/06 03:19:46;;;;;;;1.38;1.27;;;2.20;99.90;;;;;;6232916;22;20102;-84
2023/12/06 03:22:33;;;;;;;1.00;1.00;;;2.20;99.90;;;;;;6275100;22;20024;-83
2023/12/06 03:25:20;;;;;;;1.60;1.40;;;2.20;99.90;;;;;;6253243;22;20031;-84
2023/12/06 03:28:10;;;;;;;1.95;1.30;;;2.20;99.90;;;;;;6275399;22;20544;-84
2023/12/06 03:30:59;;;;;;;1.90;1.50;;;2.20;99.90;;;;;;6252492;22;20591;-85
2023/12/06 03:33:49;;;;;;;1.40;1.30;;;2.20;99.90;;;;;;6250741;22;20031;-80
2023/12/06 03:36:37;;;;;;;1.88;1.35;;;2.20;99.90;;;;;;6276974;22;20028;-81
2023/12/06 03:39:27;;;;;;;1.02;1.02;;;2.20;99.90;;;;;;6275880;22;20081;-84
2023/12/06 03:42:14;;;;;;;1.20;1.10;;;2.20;99.90;;;;;;6274821;22;20032;-85
2023/12/06 03:45:01;;;;;;;1.27;1.20;;;2.20;99.90;;;;;;6250636;22;20038;-84
2023/12/06 03:47:51;;;;;;;1.98;1.00;;;2.20;99.90;;;;;;6272479;22;20093;-84
2023/12/06 03:50:41;;;;;;;1.10;1.00;;;2.20;99.90;;;;;;6273875;22;20322;-85
2023/12/06 03:53:28;;;;;;;0.98;0.90;;;2.20;99.90;;;;;;6271466;22;20026;-84
2023/12/06 03:56:15;;;;;;;1.25;1.10;;;2.20;99.90;;;;;;6250180;22;20099;-84
2023/12/06 03:59:04;;;;;;;1.02;1.02;;;2.20;99.90;;;;;;6273228;22;20023;-84
2023/12/06 04:01:51;;;;;;;1.13;1.02;;;2.20;99.90;;;;;;6250469;22;20426;-85
2023/12/06 04:04:38;;;;;;;1.33;1.23;;;2.20;99.90;;;;;;6253212;22;20090;-85
2023/12/06 04:07:26;;;;;;;1.20;1.20;;;2.20;99.90;;;;;;6275079;22;20042;-84
2023/12/06 04:10:13;;;;;;;1.60;1.15;;;2.20;99.90;;;;;;6272925;22;20548;-85
2023/12/06 04:13:04;;;;;;;0.90;0.90;;;2.20;99.90;;;;;;6276440;22;20030;-80
2023/12/06 04:15:52;;;;;;;1.65;1.20;;;2.20;99.90;;;;;;6255250;22;20023;-84
2023/12/06 04:18:39;;;;;;;1.23;1.20;;;2.20;99.90;;;;;;6275125;22;20081;-85
2023/12/06 04:21:27;;;;;;;1.60;1.50;;;2.20;99.90;;;;;;6275987;22;20034;-81
2023/12/06 04:24:15;;;;;;;1.63;1.50;;;2.10;99.90;;;;;;6278936;22;20367;-84
2023/12/06 04:27:03;;;;;;;1.50;1.40;;;2.10;99.90;;;;;;6277658;22;20067;-85
2023/12/06 04:29:50;;;;;;;2.60;1.20;;;2.10;99.90;;;;;;6255037;22;20024;-83
2023/12/06 04:32:40;;;;;;;1.10;1.10;;;2.20;99.90;;;;;;6275683;22;20355;-84
2023/12/06 04:35:29;;;;;;;1.40;1.30;;;2.20;99.90;;;;;;6276299;22;20485;-85
2023/12/06 04:38:17;;;;;;;1.20;1.20;;;2.20;99.90;;;;;;6276532;22;20267;-84
2023/12/06 04:41:04;;;;;;;1.23;1.15;;;2.20;99.90;;;;;;6276609;22;20035;-84
2023/12/06 04:43:51;;;;;;;1.17;1.10;;;2.30;99.90;;;;;;6275611;22;20024;-84
2023/12/06 04:46:38;;;;;;;1.83;1.35;;;2.30;99.90;;;;;;6276799;22;20031;-84
2023/12/06 04:49:26;;;;;;;1.48;1.20;;;2.30;99.90;;;;;;6276949;22;20023;-85
2023/12/06 04:52:13;;;;;;;1.45;1.35;;;2.30;99.90;;;;;;6277093;22;20438;-83
2023/12/06 04:55:04;;;;;;;1.42;1.33;;;2.30;99.90;;;;;;6275199;22;20532;-83
2023/12/06 04:57:54;;;;;;;1.95;1.60;;;2.30;99.90;;;;;;6253056;22;20019;-83
2023/12/06 05:00:43;;;;;;;2.67;1.30;;;2.30;99.90;;;;;;6274060;22;20035;-80
2023/12/06 05:03:33;;;;;;;1.80;1.58;;;2.30;99.90;;;;;;6279280;22;20037;-83
2023/12/06 05:06:20;;;;;;;1.77;1.60;;;2.30;99.90;;;;;;6277326;22;20422;-85
2023/12/06 05:09:07;;;;;;;3.33;2.15;;;2.30;99.90;;;;;;6250547;22;20028;-85
2023/12/06 05:11:55;;;;;;;1.80;1.70;;;2.30;99.90;;;;;;6253151;22;20023;-84
2023/12/06 05:14:45;;;;;;;2.15;1.80;;;2.30;99.90;;;;;;6273741;22;20406;-84
2023/12/06 05:17:33;;;;;;;2.03;1.60;;;2.30;99.90;;;;;;6255599;22;20023;-85
2023/12/06 05:20:22;;;;;;;2.15;1.40;;;2.30;99.90;;;;;;6274296;22;20027;-83
2023/12/06 05:23:11;;;;;;;1.67;1.58;;;2.30;99.90;;;;;;6276893;22;20129;-84
2023/12/06 05:25:59;;;;;;;2.63;1.65;;;2.30;99.90;;;;;;6275032;22;20032;-84
2023/12/06 05:28:46;;;;;;;1.45;1.35;;;2.30;99.90;;;;;;6274700;22;20039;-84
2023/12/06 05:31:33;;;;;;;2.50;1.52;;;2.30;99.90;;;;;;6275898;22;20023;-85
2023/12/06 05:34:21;;;;;;;2.03;1.80;;;2.30;99.90;;;;;;6251288;22;20024;-83
2023/12/06 05:37:08;;;;;;;2.15;1.75;;;2.30;99.90;;;;;;6279644;22;20016;-83
2023/12/06 05:39:56;;;;;;;2.22;1.63;;;2.30;99.90;;;;;;6254147;22;20063;-84
2023/12/06 05:42:43;;;;;;;2.22;2.00;;;2.20;99.90;;;;;;6250060;22;20024;-83
2023/12/06 05:45:31;;;;;;;3.28;2.13;;;2.20;99.90;;;;;;6276942;22;20378;-80
2023/12/06 05:48:20;;;;;;;4.30;2.70;;;2.20;99.90;;;;;;6256772;22;20031;-84
2023/12/06 05:51:12;;;;;;;3.60;2.00;;;2.20;99.90;;;;;;6276773;22;20417;-84
2023/12/06 05:54:03;;;;;;;2.17;1.98;;;2.20;99.90;;;;;;6273873;22;20062;-84
2023/12/06 05:56:53;;;;;;;4.75;1.98;;;2.10;99.90;;;;;;6274480;22;20031;-85
2023/12/06 05:59:43;;;;;;;1.77;1.67;;;2.10;99.90;;;;;;6254343;22;20058;-84
2023/12/06 06:02:30;;;;;;;2.10;1.90;;;2.10;99.90;;;;;;6252312;22;20023;-85
2023/12/06 06:05:18;;;;;;;4.18;2.10;;;2.00;99.90;;;;;;6275673;22;20023;-85
2023/12/06 06:08:05;;;;;;;6.47;2.40;;;2.00;99.90;;;;;;6252338;22;20361;-84
2023/12/06 06:10:53;;;;;;;3.38;2.13;;;2.00;99.90;;;;;;6274638;22;20036;-85
2023/12/06 06:13:40;;;;;;;4.35;2.63;;;2.10;99.90;;;;;;6251970;22;20054;-84
2023/12/06 06:16:27;;;;;;;2.60;2.40;;;2.10;99.90;;;;;;6275857;22;20119;-82
2023/12/06 06:19:15;;;;;;;3.92;2.70;;;2.00;99.90;;;;;;6274138;22;20032;-83
2023/12/06 06:22:02;;;;;;;4.28;2.83;;;2.00;99.90;;;;;;6274879;22;20023;-80
2023/12/06 06:24:51;;;;;;;3.72;3.10;;;2.00;99.90;;;;;;6254787;22;20046;-82
2023/12/06 06:27:39;;;;;;;4.68;3.28;;;2.10;99.90;;;;;;6253349;22;20030;-82
2023/12/06 06:30:26;;;;;;;3.75;2.97;;;2.10;99.90;;;;;;6251334;22;20023;-84
2023/12/06 06:33:13;;;;;;;3.40;3.05;;;2.10;99.90;;;;;;6273458;22;20023;-79
2023/12/06 06:36:03;;;;;;;4.43;3.10;;;2.20;99.90;;;;;;6276407;22;20084;-83
2023/12/06 06:38:51;;;;;;;3.40;2.97;;;2.20;99.90;;;;;;6274287;22;20051;-83
2023/12/06 06:41:39;;;;;;;3.47;3.10;;;2.10;99.90;;;;;;6274733;22;20023;-84
2023/12/06 06:44:28;;;;;;;3.78;2.95;;;2.10;99.90;;;;;;6251758;22;20086;-85
2023/12/06 06:47:16;;;;;;;5.00;3.72;;;2.20;99.90;;;;;;6273724;22;20139;-83
2023/12/06 06:50:05;;;;;;;4.80;3.50;;;2.10;99.90;;;;;;6252713;22;20107;-83
2023/12/06 06:52:52;;;;;;;4.13;3.42;;;2.20;99.90;;;;;;6273552;22;20031;-84
2023/12/06 06:55:39;;;;;;;3.30;3.00;;;2.20;99.90;;;;;;6274310;22;20024;-85
2023/12/06 06:58:28;;;;;;;4.03;3.47;;;2.20;99.90;;;;;;6275695;22;20024;-83
2023/12/06 07:01:16;;;;;;;4.03;3.30;;;2.20;99.90;;;;;;6275307;22;20042;-85
2023/12/06 07:04:03;;;;;;;3.50;3.20;;;2.30;99.90;;;;;;6274946;22;20028;-83
2023/12/06 07:06:53;;;;;;;3.63;3.17;;;2.20;99.90;;;;;;6274061;22;20028;-85
2023/12/06 07:09:43;;;;;;;3.65;2.90;;;2.30;99.90;;;;;;6253088;22;20032;-79
2023/12/06 07:12:32;;;;;;;16.17;8.27;;;2.30;99.90;;;;;;6276752;22;20051;-84
2023/12/06 07:15:22;;;;;;;4.18;3.42;;;2.30;99.90;;;;;;6276230;22;20355;-82
2023/12/06 07:18:12;;;;;;;4.32;3.40;;;2.40;99.90;;;;;;6274892;22;20046;-83
2023/12/06 07:20:59;;;;;;;2.75;2.55;;;2.40;99.90;;;;;;6274075;22;20024;-83
2023/12/06 07:23:49;;;;;;;3.47;2.83;;;2.40;99.90;;;;;;6274063;22;20278;-82
2023/12/06 07:26:36;;;;;;;2.42;2.22;;;2.50;99.90;;;;;;6275009;22;20027;-83
2023/12/06 07:29:24;;;;;;;6.03;3.03;;;2.50;99.90;;;;;;6254454;22;20028;-85
2023/12/06 07:32:11;;;;;;;2.67;2.47;;;2.40;99.90;;;;;;6278164;22;20322;-87
2023/12/06 07:35:01;;;;;;;4.40;3.15;;;2.50;99.90;;;;;;6280223;22;20670;-84
2023/12/06 07:37:49;;;;;;;4.40;3.10;;;2.50;99.90;;;;;;6277972;22;20083;-84
2023/12/06 07:40:44;;;;;;;4.00;3.03;;;2.50;99.90;;;;;;6273500;22;20046;-84
2023/12/06 07:43:31;;;;;;;3.35;3.05;;;2.50;99.90;;;;;;6251393;22;20028;-84
2023/12/06 07:46:18;;;;;;;3.58;3.13;;;2.50;99.90;;;;;;6249197;22;20045;-84
2023/12/06 07:49:06;;;;;;;3.15;2.78;;;2.50;99.90;;;;;;6252919;22;20031;-80
2023/12/06 07:51:55;;;;;;;3.88;3.30;;;2.50;99.90;;;;;;6273683;22;20084;-84
2023/12/06 07:54:43;;;;;;;3.80;3.42;;;2.50;99.90;;;;;;6275082;22;20019;-85
2023/12/06 07:57:31;;;;;;;4.70;3.33;;;2.50;99.90;;;;;;6250965;22;20043;-84
2023/12/06 08:00:22;;;;;;;11.70;4.03;;;2.60;99.90;;;;;;6276618;22;20026;-83
2023/12/06 08:03:10;;;;;;;4.07;3.70;;;2.60;99.90;;;;;;6273710;22;20119;-84
2023/12/06 08:05:59;;;;;;;4.82;4.00;;;2.60;99.90;;;;;;6272196;22;20024;-82
2023/12/06 08:08:53;;;;;;;5.88;3.65;;;2.60;99.90;;;;;;6252105;22;20038;-83
2023/12/06 08:11:44;;;;;;;6.63;4.20;;;2.70;99.90;;;;;;6229558;22;20023;-82
2023/12/06 08:14:34;;;;;;;5.30;4.07;;;2.70;99.90;;;;;;6269699;22;20126;-81
2023/12/06 08:20:08;;;;;;;5.93;3.92;;;2.80;99.90;;;;;;6290637;22;20023;-82
2023/12/06 08:22:57;;;;;;;4.68;4.05;;;2.90;99.90;;;;;;6333993;22;20025;-82
2023/12/06 08:25:45;;;;;;;6.43;3.90;;;3.10;99.90;;;;;;6215118;22;20020;-82
2023/12/06 08:28:33;;;;;;;4.63;3.63;;;3.10;99.90;;;;;;6305873;22;20023;-81
2023/12/06 08:31:20;;;;;;;7.05;4.05;;;3.10;99.90;;;;;;6280692;22;20124;-80
2023/12/06 08:34:08;;;;;;;4.85;3.58;;;3.10;99.90;;;;;;6281163;22;20027;-79
2023/12/06 08:36:56;;;;;;;10.95;4.10;;;3.10;99.90;;;;;;6304206;22;20092;-79
2023/12/06 08:39:44;;;;;;;6.85;4.38;;;3.10;99.90;;;;;;6304800;22;20025;-79
2023/12/06 08:42:34;;;;;;;4.60;3.50;;;3.10;99.90;;;;;;6307154;22;20031;-81
2023/12/06 08:45:22;;;;;;;8.77;5.28;;;3.10;99.90;;;;;;6305711;22;20068;-80
2023/12/06 08:48:11;;;;;;;6.80;5.50;;;3.20;99.90;;;;;;6303864;22;20029;-82
2023/12/06 08:51:02;;;;;;;7.30;5.47;;;3.20;99.90;;;;;;6305055;22;20092;-82
2023/12/06 08:53:51;;;;;;;10.15;6.30;;;3.30;99.90;;;;;;6306176;22;20698;-82
2023/12/06 08:56:39;;;;;;;8.38;6.80;;;3.30;99.90;;;;;;6307268;22;20368;-82
2023/12/06 08:59:26;;;;;;;9.90;6.57;;;3.40;99.90;;;;;;6306645;22;20023;-82
2023/12/06 09:02:14;;;;;;;8.80;6.78;;;3.50;22.60;;;;;;6305412;22;20259;-82
2023/12/06 09:05:01;;;;;;;7.85;6.30;;;3.50;1.00;;;;;;6283780;22;20023;-81
2023/12/06 09:07:49;;;;;;;8.23;6.43;;;3.50;1.00;;;;;;6282529;22;20108;-82
2023/12/06 09:10:38;;;;;;;7.50;6.20;;;3.50;99.90;;;;;;6307510;22;20023;-81
2023/12/06 09:13:26;;;;;;;10.15;6.93;;;3.60;99.90;;;;;;6305977;22;20023;-82
2023/12/06 09:16:14;;;;;;;8.70;6.38;;;3.60;99.90;;;;;;6306408;22;20029;-82
2023/12/06 09:19:05;;;;;;;11.93;7.50;;;3.60;93.50;;;;;;6306592;22;20015;-78
2023/12/06 09:21:53;;;;;;;9.60;6.82;;;3.60;12.70;;;;;;6283182;22;20055;-80
2023/12/06 09:41:49;;;;;;;11.63;7.82;;;3.50;99.90;;;;;;6314379;22;20091;-82
2023/12/06 09:44:45;;;;;;;13.63;8.68;;;3.50;99.90;;;;;;6303862;22;20092;-81
2023/12/06 09:51:47;;;;;;;16.15;9.73;;;3.50;1.00;;;;;;6301039;22;20019;-81
2023/12/06 09:55:42;;;;;;;11.95;8.60;;;3.60;99.90;;;;;;6236770;23;20093;-81
2023/12/06 09:58:47;;;;;;;11.98;8.93;;;3.60;99.90;;;;;;6120233;23;20055;-82
2023/12/06 10:01:47;;;;;;;13.82;9.85;;;3.60;99.90;;;;;;6118920;23;20045;-81
2023/12/06 10:12:57;;;;;;;11.15;8.40;;;3.50;99.90;;;;;;6074183;23;20026;-81
2023/12/06 10:15:44;;;;;;;13.43;9.23;;;3.50;99.90;;;;;;6146964;23;20153;-82
2023/12/06 10:18:32;;;;;;;12.00;9.18;;;3.50;99.90;;;;;;6209193;23;20025;-78
2023/12/06 10:21:20;;;;;;;14.70;9.43;;;3.50;99.90;;;;;;6213759;23;20036;-82
2023/12/06 10:24:09;;;;;;;13.77;9.98;;;3.50;99.90;;;;;;6211589;23;20272;-82
2023/12/06 10:27:32;;;;;;;13.65;9.63;;;3.50;99.90;;;;;;6209624;23;20037;-82
2023/12/06 10:30:29;;;;;;;14.10;9.77;;;3.40;99.90;;;;;;6232915;22;20034;-81
2023/12/06 10:37:32;;;;;;;13.30;8.82;;;3.30;99.90;;;;;;6090997;23;20022;-80
2023/12/06 10:40:38;;;;;;;12.20;9.35;;;3.30;99.90;;;;;;6142911;23;20028;-80
2023/12/06 10:43:32;;;;;;;12.25;9.07;;;3.30;99.90;;;;;;6243788;23;20039;-82
2023/12/06 10:46:40;;;;;;;11.50;9.00;;;3.30;99.90;;;;;;6241819;23;20402;-81
2023/12/06 10:49:50;;;;;;;13.60;9.48;;;3.30;99.90;;;;;;6243907;23;20039;-81
2023/12/06 10:53:06;;;;;;;11.75;9.23;;;3.30;99.90;;;;;;6243164;23;20051;-80
2023/12/06 10:55:53;;;;;;;13.18;9.82;;;3.30;99.90;;;;;;6243501;23;20295;-82
2023/12/06 10:58:48;;;;;;;13.48;10.32;;;3.20;99.90;;;;;;6243973;23;20085;-82
2023/12/06 11:01:44;;;;;;;10.63;9.48;;;3.30;99.90;;;;;;6243555;23;20024;-81
2023/12/06 11:04:36;;;;;;;12.00;9.18;;;3.20;99.90;;;;;;6241851;23;20656;-82
2023/12/06 11:07:45;;;;;;;17.27;11.05;;;3.30;99.90;;;;;;6201395;23;20643;-79
2023/12/06 11:11:10;;;;;;;14.07;9.30;;;3.30;99.90;;;;;;6242482;23;20371;-82
2023/12/06 11:14:09;;;;;;;13.05;9.05;;;3.20;99.90;;;;;;6220039;23;20043;-82
2023/12/06 11:17:33;;;;;;;13.60;10.30;;;3.20;99.90;;;;;;6241475;23;20410;-82
2023/12/06 11:20:23;;;;;;;13.82;9.93;;;3.30;99.90;;;;;;6241642;23;20105;-82
2023/12/06 11:23:16;;;;;;;12.82;9.32;;;3.30;99.90;;;;;;6242139;23;20422;-82
2023/12/06 11:26:05;;;;;;;14.32;10.30;;;3.30;99.90;;;;;;6240289;23;20395;-82
2023/12/06 11:28:54;;;;;;;11.93;9.73;;;3.30;99.90;;;;;;6242820;23;20024;-82
2023/12/06 11:31:55;;;;;;;13.57;10.48;;;3.30;99.90;;;;;;6244251;22;20031;-81
2023/12/06 11:34:55;;;;;;;13.02;10.20;;;3.30;99.90;;;;;;6221313;23;20438;-81
2023/12/06 11:37:55;;;;;;;13.50;9.35;;;3.40;99.90;;;;;;6251908;22;20371;-82
2023/12/06 11:40:52;;;;;;;11.52;9.27;;;3.40;99.90;;;;;;6275050;22;20035;-81
2023/12/06 11:43:51;;;;;;;13.68;9.80;;;3.30;99.90;;;;;;6272930;22;20106;-82
2023/12/06 11:46:40;;;;;;;15.20;10.35;;;3.30;99.90;;;;;;6249919;22;20094;-81
2023/12/06 11:49:27;;;;;;;12.85;10.25;;;3.30;99.90;;;;;;6272428;22;20407;-82
2023/12/06 11:52:20;;;;;;;12.23;9.77;;;3.30;1.00;;;;;;6270368;22;20028;-82
2023/12/06 11:55:07;;;;;;;12.18;9.27;;;3.40;99.90;;;;;;6273866;22;20313;-79
2023/12/06 11:58:07;;;;;;;12.32;9.45;;;3.40;99.90;;;;;;6272756;22;20019;-79
2023/12/06 12:00:55;;;;;;;12.65;9.43;;;3.40;99.90;;;;;;6273327;22;20112;-78
2023/12/06 12:03:49;;;;;;;13.43;9.82;;;3.40;99.90;;;;;;6272404;22;20019;-79
2023/12/06 12:06:37;;;;;;;15.90;10.95;;;3.40;99.90;;;;;;6252652;22;20086;-79
2023/12/06 12:09:25;;;;;;;14.65;10.30;;;3.30;99.90;;;;;;6274650;22;20147;-81
2023/12/06 12:12:12;;;;;;;15.40;10.57;;;3.20;99.90;;;;;;6276083;22;20377;-80
2023/12/06 12:15:22;;;;;;;14.30;10.20;;;3.20;99.90;;;;;;6273022;22;20102;-80
2023/12/06 12:18:46;;;;;;;13.82;9.68;;;3.10;1.00;;;;;;6273655;22;20020;-80
2023/12/06 12:21:34;;;;;;;15.65;9.85;;;2.90;99.90;;;;;;6274659;22;20024;-80
2023/12/06 12:24:33;;;;;;;14.55;10.73;;;2.90;99.90;;;;;;6272225;22;20028;-78
2023/12/06 12:27:21;;;;;;;14.00;11.05;;;2.90;99.90;;;;;;6274403;22;20290;-80
2023/12/06 12:30:09;;;;;;;16.83;10.93;;;2.80;90.30;;;;;;6254815;22;20047;-80
2023/12/06 12:32:57;;;;;;;14.13;10.02;;;2.80;99.90;;;;;;6277702;22;20020;-80
2023/12/06 12:35:45;;;;;;;15.48;10.43;;;2.80;84.60;;;;;;6251118;22;20023;-80
2023/12/06 12:38:36;;;;;;;16.42;11.73;;;2.80;1.00;;;;;;6273013;22;20287;-81
2023/12/06 12:41:27;;;;;;;16.42;10.45;;;2.80;93.10;;;;;;6275383;22;20027;-81
2023/12/06 12:44:16;;;;;;;14.25;10.52;;;2.80;99.90;;;;;;6252687;22;20027;-80
2023/12/06 12:47:05;;;;;;;19.40;11.00;;;2.80;32.60;;;;;;6254395;22;20027;-81
2023/12/06 12:49:52;;;;;;;17.17;12.68;;;2.80;99.90;;;;;;6252127;22;20031;-81
2023/12/06 12:52:39;;;;;;;21.33;12.85;;;2.90;99.90;;;;;;6275210;22;20031;-79
2023/12/06 12:55:36;;;;;;;15.30;10.90;;;2.80;99.90;;;;;;6274003;22;20028;-80
2023/12/06 12:58:27;;;;;;;17.90;10.70;;;2.90;99.90;;;;;;6274178;22;20027;-82
2023/12/06 13:01:15;;;;;;;15.73;11.15;;;2.90;99.90;;;;;;6275769;22;20031;-80
2023/12/06 13:04:06;;;;;;;15.07;11.05;;;2.90;99.90;;;;;;6251683;22;20019;-79
2023/12/06 13:06:56;;;;;;;16.33;10.63;;;2.90;99.90;;;;;;6254368;22;20418;-78
2023/12/06 13:09:43;;;;;;;15.25;11.05;;;2.90;99.90;;;;;;6276518;22;20023;-80
2023/12/06 13:12:31;;;;;;;17.52;11.57;;;3.00;1.00;;;;;;6252285;22;20024;-81
2023/12/06 13:15:20;;;;;;;16.33;11.70;;;2.90;1.00;;;;;;6274359;22;20028;-81
2023/12/06 13:18:09;;;;;;;18.95;12.18;;;2.90;99.90;;;;;;6271830;22;20117;-79
2023/12/06 13:20:57;;;;;;;16.00;11.32;;;2.90;99.90;;;;;;6276429;22;20109;-81
2023/12/06 13:23:46;;;;;;;16.95;11.35;;;2.90;99.90;;;;;;6274069;22;20034;-81
2023/12/06 13:26:37;;;;;;;17.92;11.75;;;2.90;99.90;;;;;;6272188;22;20104;-80
2023/12/06 13:29:29;;;;;;;17.92;10.77;;;3.00;99.90;;;;;;6273311;22;20102;-81
2023/12/06 13:32:16;;;;;;;17.90;11.45;;;2.90;99.90;;;;;;6272148;22;20059;-81
2023/12/06 13:35:04;;;;;;;14.27;10.20;;;2.90;99.90;;;;;;6250246;22;20081;-81
2023/12/06 13:38:05;;;;;;;13.35;9.80;;;2.90;99.90;;;;;;6274730;22;20111;-81
2023/12/06 13:40:54;;;;;;;15.10;10.10;;;2.90;99.90;;;;;;6276167;22;20035;-81
2023/12/06 13:43:42;;;;;;;14.70;10.30;;;2.80;99.90;;;;;;6271547;22;20055;-80
2023/12/06 13:46:32;;;;;;;12.95;10.27;;;2.90;99.90;;;;;;6252456;22;20028;-81
2023/12/06 13:49:22;;;;;;;16.27;11.23;;;2.90;99.90;;;;;;6274162;22;20027;-80
2023/12/06 13:52:12;;;;;;;21.35;13.65;;;2.80;99.90;;;;;;6274966;22;20024;-81
2023/12/06 13:55:00;;;;;;;16.73;11.55;;;2.80;99.90;;;;;;6274424;22;20027;-78
2023/12/06 13:57:47;;;;;;;14.48;10.63;;;2.80;99.90;;;;;;6251150;22;20099;-81
2023/12/06 14:00:35;;;;;;;15.63;10.65;;;2.80;99.90;;;;;;6277394;22;20085;-80
2023/12/06 14:03:22;;;;;;;14.52;10.35;;;2.70;99.90;;;;;;6273152;22;20054;-80
2023/12/06 14:06:11;;;;;;;14.82;10.30;;;2.70;99.90;;;;;;6273715;22;20468;-80
2023/12/06 14:08:59;;;;;;;13.35;10.15;;;2.70;99.90;;;;;;6274719;22;20038;-81
2023/12/06 14:11:46;;;;;;;13.98;10.77;;;2.70;99.90;;;;;;6251530;22;20366;-81
2023/12/06 14:14:37;;;;;;;15.80;10.60;;;2.70;99.90;;;;;;6272870;22;20111;-81
2023/12/06 14:17:28;;;;;;;16.70;10.40;;;2.70;99.90;;;;;;6274460;22;20034;-80
2023/12/06 14:20:17;;;;;;;17.17;11.60;;;2.70;99.90;;;;;;6273514;22;20039;-80
2023/12/06 14:23:07;;;;;;;17.48;11.85;;;2.60;99.90;;;;;;6249279;22;20038;-82
2023/12/06 14:25:54;;;;;;;18.52;12.15;;;2.60;99.90;;;;;;6251928;22;20383;-82
2023/12/06 14:28:44;;;;;;;18.83;12.75;;;2.60;99.90;;;;;;6274840;22;20024;-81
2023/12/06 14:31:31;;;;;;;20.67;12.43;;;2.60;97.80;;;;;;6252557;22;20031;-78
2023/12/06 14:34:19;;;;;;;15.15;11.20;;;2.60;99.90;;;;;;6275965;22;20051;-78
2023/12/06 14:37:06;;;;;;;18.52;12.07;;;2.60;99.90;;;;;;6273546;22;20031;-79
2023/12/06 14:39:54;;;;;;;19.00;11.40;;;2.50;18.90;;;;;;6253869;22;20438;-75
2023/12/06 14:42:43;;;;;;;17.70;11.95;;;2.60;1.00;;;;;;6253832;22;20407;-79
2023/12/06 14:45:31;;;;;;;17.23;11.20;;;2.60;99.90;;;;;;6275369;22;20452;-80
2023/12/06 14:48:18;;;;;;;21.15;11.68;;;2.60;99.90;;;;;;6272862;22;20031;-81
2023/12/06 14:51:06;;;;;;;18.17;12.15;;;2.60;99.90;;;;;;6272507;22;20031;-79
2023/12/06 14:53:54;;;;;;;16.55;12.02;;;2.50;99.90;;;;;;6274102;22;20059;-80
2023/12/06 14:56:42;;;;;;;26.00;15.13;;;2.50;99.90;;;;;;6273763;22;20020;-80
2023/12/06 14:59:29;;;;;;;28.83;16.40;;;2.40;1.00;;;;;;6253271;22;20063;-81
2023/12/06 15:02:17;;;;;;;21.00;13.15;;;2.40;1.00;;;;;;6253690;22;20031;-81
2023/12/06 15:05:04;;;;;;;20.08;13.45;;;2.40;1.00;;;;;;6275088;22;20028;-79
2023/12/06 15:07:53;;;;;;;18.00;12.52;;;2.30;1.00;;;;;;6275931;22;20051;-80
2023/12/06 15:10:41;;;;;;;22.95;14.00;;;2.30;1.00;;;;;;6273527;22;20027;-81
2023/12/06 15:13:28;;;;;;;23.38;15.32;;;2.20;1.00;;;;;;6253092;22;20027;-80
2023/12/06 15:16:16;;;;;;;25.55;15.90;;;2.20;9.20;;;;;;6271111;22;20061;-80
2023/12/06 15:19:03;;;;;;;22.92;15.00;;;2.20;23.50;;;;;;6274003;22;20035;-80
2023/12/06 15:21:51;;;;;;;21.17;14.38;;;2.20;11.00;;;;;;6270416;22;20404;-81
2023/12/06 15:24:38;;;;;;;20.05;13.68;;;2.20;1.30;;;;;;6273454;22;20024;-80